createdAt,value
2022-10-05T00:01:26.212Z,11.53
2022-10-05T00:07:09.519Z,11.63
2022-10-05T00:12:31.236Z,11.73
2022-10-05T00:17:53.112Z,11.72
2022-10-05T00:23:18.974Z,11.64
2022-10-05T00:28:41.398Z,11.64
2022-10-05T00:34:03.327Z,11.68
2022-10-05T00:39:25.633Z,11.58
2022-10-05T00:44:51.514Z,11.62
2022-10-05T00:50:40.616Z,11.54
2022-10-05T00:56:39.161Z,11.38
2022-10-05T01:02:20.247Z,11.36
2022-10-05T01:07:58.758Z,11.18
2022-10-05T01:13:34.677Z,11.29
2022-10-05T01:19:25.726Z,11.17
2022-10-05T01:25:14.302Z,11.00
2022-10-05T01:31:19.589Z,10.97
2022-10-05T01:37:08.487Z,11.13
2022-10-05T01:42:37.998Z,11.24
2022-10-05T01:48:07.559Z,11.16
2022-10-05T01:53:41.538Z,11.20
2022-10-05T01:59:23.216Z,11.15
2022-10-05T02:05:01.933Z,11.06
2022-10-05T02:10:28.678Z,11.15
2022-10-05T02:16:02.609Z,10.87
2022-10-05T02:21:25.521Z,10.76
2022-10-05T02:26:50.139Z,10.76
2022-10-05T02:32:19.865Z,10.66
2022-10-05T02:38:08.541Z,10.36
2022-10-05T02:43:48.528Z,10.26
2022-10-05T02:49:33.042Z,10.31
2022-10-05T02:55:19.197Z,10.38
2022-10-05T03:00:47.776Z,10.39
2022-10-05T03:06:23.031Z,10.40
2022-10-05T03:12:30.263Z,10.49
2022-10-05T03:18:30.606Z,10.36
2022-10-05T03:24:17.343Z,10.46
2022-10-05T03:29:59.417Z,10.53
2022-10-05T03:35:29.846Z,10.62
2022-10-05T03:40:58.397Z,10.62
2022-10-05T03:46:39.708Z,10.66
2022-10-05T03:52:09.166Z,10.64
2022-10-05T03:57:38.784Z,10.54
2022-10-05T04:03:12.450Z,10.57
2022-10-05T04:08:47.811Z,10.33
2022-10-05T04:14:20.392Z,10.09
2022-10-05T04:20:00.792Z,10.08
2022-10-05T04:25:31.735Z,10.32
2022-10-05T04:30:54.530Z,10.38
2022-10-05T04:36:26.612Z,10.49
2022-10-05T04:42:19.115Z,10.31
2022-10-05T04:48:20.214Z,10.30
2022-10-05T04:53:53.531Z,10.08
2022-10-05T04:59:36.338Z,9.88
2022-10-05T05:05:28.806Z,10.08
2022-10-05T05:11:24.945Z,10.12
2022-10-05T05:17:13.474Z,10.10
2022-10-05T05:22:48.737Z,10.08
2022-10-05T05:28:18.467Z,10.05
2022-10-05T05:34:06.831Z,10.05
2022-10-05T05:39:49.506Z,9.77
2022-10-05T05:45:25.699Z,9.72
2022-10-05T05:51:20.915Z,9.97
2022-10-05T05:56:53.466Z,9.99
2022-10-05T06:02:19.908Z,9.96
2022-10-05T06:07:41.966Z,10.07
2022-10-05T06:13:11.440Z,10.04
2022-10-05T06:18:34.355Z,10.01
2022-10-05T06:24:12.702Z,9.94
2022-10-05T06:29:54.383Z,9.94
2022-10-05T06:35:40.722Z,9.91
2022-10-05T06:41:47.365Z,10.01
2022-10-05T06:47:45.609Z,10.12
2022-10-05T06:53:13.433Z,10.08
2022-10-05T06:59:02.261Z,9.93
2022-10-05T07:05:12.045Z,10.15
2022-10-05T07:10:51.496Z,10.34
2022-10-05T07:16:34.595Z,10.50
2022-10-05T07:22:22.094Z,10.54
2022-10-05T07:27:55.732Z,10.76
2022-10-05T07:33:24.805Z,10.82
2022-10-05T07:39:07.767Z,10.87
2022-10-05T07:44:43.308Z,10.92
2022-10-05T07:50:29.233Z,11.08
2022-10-05T07:55:54.539Z,11.17
2022-10-05T08:01:19.194Z,11.30
2022-10-05T08:06:49.187Z,11.29
2022-10-05T08:12:26.893Z,11.35
2022-10-05T08:17:55.214Z,11.35
2022-10-05T08:23:36.333Z,11.47
2022-10-05T08:29:33.631Z,11.64
2022-10-05T08:35:03.978Z,11.76
2022-10-05T08:40:45.895Z,11.88
2022-10-05T08:46:29.641Z,11.92
2022-10-05T08:51:54.315Z,11.96
2022-10-05T08:57:24.737Z,12.11
2022-10-05T09:03:22.971Z,12.31
2022-10-05T09:08:53.735Z,12.48
2022-10-05T09:14:27.546Z,12.62
2022-10-05T09:20:17.324Z,12.75
2022-10-05T09:26:05.461Z,12.86
2022-10-05T09:31:55.491Z,12.96
2022-10-05T09:37:29.820Z,13.07
2022-10-05T09:43:29.133Z,13.23
2022-10-05T09:49:06.122Z,13.36
2022-10-05T09:55:06.544Z,13.57
2022-10-05T10:00:59.547Z,13.78
2022-10-05T10:06:51.493Z,14.09
2022-10-05T10:12:42.055Z,14.18
2022-10-05T10:18:19.140Z,14.37
2022-10-05T10:23:43.533Z,14.53
2022-10-05T10:35:25.641Z,14.84
2022-10-05T10:41:09.069Z,15.16
2022-10-05T10:47:09.053Z,15.28
2022-10-05T10:53:04.508Z,15.41
2022-10-05T10:58:48.090Z,15.52
2022-10-05T11:04:40.331Z,15.69
2022-10-05T11:10:19.722Z,16.18
2022-10-05T11:15:56.857Z,16.54
2022-10-05T11:21:36.407Z,16.80
2022-10-05T11:27:20.096Z,17.03
2022-10-05T11:33:11.262Z,16.91
2022-10-05T11:38:52.253Z,17.20
2022-10-05T11:44:38.678Z,17.26
2022-10-05T11:50:12.370Z,18.09
2022-10-05T11:55:57.618Z,18.06
2022-10-05T12:01:34.515Z,18.12
2022-10-05T12:07:02.862Z,18.14
2022-10-05T12:12:29.943Z,18.33
2022-10-05T12:18:13.428Z,18.50
2022-10-05T12:23:47.009Z,18.46
2022-10-05T12:29:20.820Z,18.84
2022-10-05T12:35:01.696Z,18.91
2022-10-05T12:40:28.218Z,18.83
2022-10-05T12:45:53.028Z,18.88
2022-10-05T12:51:42.829Z,18.96
2022-10-05T12:57:46.537Z,19.11
2022-10-05T13:03:25.554Z,19.63
2022-10-05T13:09:03.641Z,19.53
2022-10-05T13:14:51.815Z,19.46
2022-10-05T13:20:46.881Z,19.32
2022-10-05T13:26:21.810Z,19.65
2022-10-05T13:31:47.964Z,19.58
2022-10-05T13:37:39.419Z,19.58
2022-10-05T13:43:32.289Z,19.79
2022-10-05T13:49:38.995Z,19.64
2022-10-05T13:55:16.795Z,19.89
2022-10-05T14:01:00.124Z,20.26
2022-10-05T14:06:30.635Z,20.07
2022-10-05T14:12:12.778Z,19.87
2022-10-05T14:17:40.950Z,19.76
2022-10-05T14:23:18.436Z,20.16
2022-10-05T14:28:57.626Z,19.78
2022-10-05T14:34:35.955Z,19.60
2022-10-05T14:40:20.286Z,19.56
2022-10-05T14:45:55.746Z,19.48
2022-10-05T14:51:31.883Z,19.43
2022-10-05T14:57:23.141Z,19.44
2022-10-05T15:02:59.914Z,19.30
2022-10-05T15:08:27.990Z,19.25
2022-10-05T15:13:50.114Z,19.29
2022-10-05T15:19:20.913Z,19.36
2022-10-05T15:25:01.697Z,19.38
2022-10-05T15:30:24.525Z,19.34
2022-10-05T15:36:09.605Z,19.31
2022-10-05T15:41:55.182Z,19.23
2022-10-05T15:47:39.088Z,19.20
2022-10-05T15:53:16.022Z,19.12
2022-10-05T15:58:49.942Z,19.04
2022-10-05T16:04:23.220Z,19.01
2022-10-05T16:10:13.555Z,19.06
2022-10-05T16:16:12.586Z,18.97
2022-10-05T16:21:54.056Z,18.95
2022-10-05T16:27:34.639Z,18.85
2022-10-05T16:32:59.382Z,18.87
2022-10-05T16:38:27.195Z,18.81
2022-10-05T16:44:06.850Z,18.69
2022-10-05T16:49:46.215Z,18.55
2022-10-05T16:55:20.000Z,18.48
2022-10-05T17:00:58.614Z,18.35
2022-10-05T17:06:35.292Z,18.22
2022-10-05T17:12:21.271Z,18.14
2022-10-05T17:18:18.446Z,18.05
2022-10-05T17:24:20.729Z,17.96
2022-10-05T17:29:51.768Z,17.89
2022-10-05T17:35:18.732Z,17.83
2022-10-05T17:41:01.039Z,17.75
2022-10-05T17:46:44.685Z,17.68
2022-10-05T17:52:46.568Z,17.61
2022-10-05T17:58:23.924Z,17.45
2022-10-05T18:03:51.436Z,17.35
2022-10-05T18:09:22.869Z,17.23
2022-10-05T18:14:55.269Z,17.10
2022-10-05T18:20:29.532Z,16.87
2022-10-05T18:26:13.763Z,16.70
2022-10-05T18:31:59.246Z,16.69
2022-10-05T18:37:27.041Z,16.65
2022-10-05T18:43:18.084Z,16.68
2022-10-05T18:48:50.744Z,16.68
2022-10-05T18:54:40.498Z,16.69
2022-10-05T19:00:29.169Z,16.64
2022-10-05T19:05:58.690Z,16.51
2022-10-05T19:11:51.150Z,16.48
2022-10-05T19:17:25.739Z,16.46
2022-10-05T19:22:56.491Z,16.37
2022-10-05T19:28:57.740Z,16.33
2022-10-05T19:34:39.406Z,16.29
2022-10-05T19:40:16.397Z,16.25
2022-10-05T19:45:46.321Z,16.19
2022-10-05T19:51:16.149Z,16.20
2022-10-05T19:56:49.527Z,16.21
2022-10-05T20:02:15.476Z,16.18
2022-10-05T20:07:37.530Z,16.07
2022-10-05T20:13:20.537Z,16.08
2022-10-05T20:19:01.010Z,16.04
2022-10-05T20:24:25.856Z,15.97
2022-10-05T20:29:47.657Z,15.94
2022-10-05T20:35:09.489Z,15.94
2022-10-05T20:40:31.285Z,15.89
2022-10-05T20:45:53.863Z,15.82
2022-10-05T20:51:17.924Z,15.73
2022-10-05T20:56:42.564Z,15.67
2022-10-05T21:02:05.192Z,15.68
2022-10-05T21:07:26.897Z,15.63
2022-10-05T21:12:48.918Z,15.61
2022-10-05T21:18:10.600Z,15.61
2022-10-05T21:23:35.370Z,15.62
2022-10-05T21:28:58.492Z,15.58
2022-10-05T21:34:20.236Z,15.62
2022-10-05T21:39:42.289Z,15.68
2022-10-05T21:45:04.392Z,15.77
2022-10-05T21:50:26.521Z,15.82
2022-10-05T21:55:50.695Z,15.82
2022-10-05T22:01:12.803Z,15.87
2022-10-05T22:06:35.326Z,15.87
2022-10-05T22:11:57.480Z,15.91
2022-10-05T22:17:30.870Z,15.93
2022-10-05T22:22:53.898Z,15.88
2022-10-05T22:28:16.555Z,15.91
2022-10-05T22:33:39.001Z,15.89
2022-10-05T22:39:00.762Z,15.86
2022-10-05T22:44:22.684Z,15.88
2022-10-05T22:49:44.479Z,15.88
2022-10-05T22:55:06.800Z,15.83
2022-10-05T23:00:53.391Z,15.76
2022-10-05T23:06:20.895Z,15.69
2022-10-05T23:11:42.622Z,15.68
2022-10-05T23:17:04.469Z,15.58
2022-10-05T23:22:26.381Z,15.55
2022-10-05T23:27:48.096Z,15.48
2022-10-05T23:33:09.980Z,15.39
2022-10-05T23:38:32.505Z,15.36
2022-10-05T23:43:57.227Z,15.36
2022-10-05T23:49:18.927Z,15.37
2022-10-05T23:54:40.731Z,15.36
